sensor_id;sensor_type;location;lat;lon;timestamp;temperature;humidity
77218;DHT22;66214;51.302;17.068;2023-03-17T00:01:45;0.46;60.25
77218;DHT22;66214;51.302;17.068;2023-03-17T00:04:17;0.53;60.20
77218;DHT22;66214;51.302;17.068;2023-03-17T00:06:44;0.57;60.10
77218;DHT22;66214;51.302;17.068;2023-03-17T00:09:13;0.62;60.07
77218;DHT22;66214;51.302;17.068;2023-03-17T00:11:42;0.65;60.07
77218;DHT22;66214;51.302;17.068;2023-03-17T00:14:10;0.65;60.12
77218;DHT22;66214;51.302;17.068;2023-03-17T00:16:41;0.65;60.04
77218;DHT22;66214;51.302;17.068;2023-03-17T00:19:18;0.68;60.00
77218;DHT22;66214;51.302;17.068;2023-03-17T00:21:56;0.70;60.14
77218;DHT22;66214;51.302;17.068;2023-03-17T00:24:25;0.72;60.08
77218;DHT22;66214;51.302;17.068;2023-03-17T00:26:52;0.72;60.00
77218;DHT22;66214;51.302;17.068;2023-03-17T00:29:19;0.74;60.00
77218;DHT22;66214;51.302;17.068;2023-03-17T00:31:46;0.75;59.98
77218;DHT22;66214;51.302;17.068;2023-03-17T00:34:14;0.75;59.87
77218;DHT22;66214;51.302;17.068;2023-03-17T00:36:45;0.78;59.95
77218;DHT22;66214;51.302;17.068;2023-03-17T00:39:15;0.79;59.97
77218;DHT22;66214;51.302;17.068;2023-03-17T00:41:43;0.81;60.03
77218;DHT22;66214;51.302;17.068;2023-03-17T00:44:10;0.83;59.95
77218;DHT22;66214;51.302;17.068;2023-03-17T00:46:37;0.85;60.10
77218;DHT22;66214;51.302;17.068;2023-03-17T00:49:11;0.88;60.05
77218;DHT22;66214;51.302;17.068;2023-03-17T00:51:45;0.91;60.08
77218;DHT22;66214;51.302;17.068;2023-03-17T00:54:13;0.93;60.01
77218;DHT22;66214;51.302;17.068;2023-03-17T00:56:41;0.91;59.98
77218;DHT22;66214;51.302;17.068;2023-03-17T00:59:25;0.90;60.11
77218;DHT22;66214;51.302;17.068;2023-03-17T01:01:55;0.91;60.16
77218;DHT22;66214;51.302;17.068;2023-03-17T01:04:22;0.90;60.29
77218;DHT22;66214;51.302;17.068;2023-03-17T01:06:50;0.93;60.43
77218;DHT22;66214;51.302;17.068;2023-03-17T17:02:57;10.11;37.43
77218;DHT22;66214;51.302;17.068;2023-03-17T17:05:29;10.01;37.40
77218;DHT22;66214;51.302;17.068;2023-03-17T17:07:58;9.91;37.50
77218;DHT22;66214;51.302;17.068;2023-03-17T17:10:27;9.82;37.78
77218;DHT22;66214;51.302;17.068;2023-03-17T17:12:57;9.74;37.67
77218;DHT22;66214;51.302;17.068;2023-03-17T17:15:25;9.65;38.06
77218;DHT22;66214;51.302;17.068;2023-03-17T17:17:59;9.57;38.10
77218;DHT22;66214;51.302;17.068;2023-03-17T17:20:35;9.50;38.15
77218;DHT22;66214;51.302;17.068;2023-03-17T17:23:06;9.43;38.20
77218;DHT22;66214;51.302;17.068;2023-03-17T17:25:40;9.36;38.37
77218;DHT22;66214;51.302;17.068;2023-03-17T17:28:10;9.31;38.86
77218;DHT22;66214;51.302;17.068;2023-03-17T17:30:41;9.26;39.02
77218;DHT22;66214;51.302;17.068;2023-03-17T17:33:11;9.22;38.95
77218;DHT22;66214;51.302;17.068;2023-03-17T17:35:40;9.16;38.97
77218;DHT22;66214;51.302;17.068;2023-03-17T17:38:28;9.10;39.30
77218;DHT22;66214;51.302;17.068;2023-03-17T17:40:57;9.05;39.41
77218;DHT22;66214;51.302;17.068;2023-03-17T17:43:32;8.99;39.42
77218;DHT22;66214;51.302;17.068;2023-03-17T17:46:00;8.93;39.47
77218;DHT22;66214;51.302;17.068;2023-03-17T17:48:28;8.87;39.38
77218;DHT22;66214;51.302;17.068;2023-03-17T17:50:56;8.78;39.56
77218;DHT22;66214;51.302;17.068;2023-03-17T17:53:24;8.69;39.61
77218;DHT22;66214;51.302;17.068;2023-03-17T17:55:52;8.62;39.79
77218;DHT22;66214;51.302;17.068;2023-03-17T17:58:21;8.55;40.13
77218;DHT22;66214;51.302;17.068;2023-03-17T18:00:51;8.50;40.08
77218;DHT22;66214;51.302;17.068;2023-03-17T18:03:24;8.42;40.13
77218;DHT22;66214;51.302;17.068;2023-03-17T18:05:53;8.34;40.28
77218;DHT22;66214;51.302;17.068;2023-03-17T18:08:23;8.27;40.46
77218;DHT22;66214;51.302;17.068;2023-03-17T18:10:52;8.20;40.80
77218;DHT22;66214;51.302;17.068;2023-03-17T18:13:23;8.16;40.65
77218;DHT22;66214;51.302;17.068;2023-03-17T18:15:51;8.10;40.89
77218;DHT22;66214;51.302;17.068;2023-03-17T18:18:19;8.04;40.98
77218;DHT22;66214;51.302;17.068;2023-03-17T18:20:48;7.99;41.09
77218;DHT22;66214;51.302;17.068;2023-03-17T18:23:16;7.93;41.25
77218;DHT22;66214;51.302;17.068;2023-03-17T18:25:44;7.87;41.39
77218;DHT22;66214;51.302;17.068;2023-03-17T18:28:12;7.81;41.39
77218;DHT22;66214;51.302;17.068;2023-03-17T18:30:40;7.75;41.42
77218;DHT22;66214;51.302;17.068;2023-03-17T18:33:14;7.69;41.62
77218;DHT22;66214;51.302;17.068;2023-03-17T18:35:45;7.63;41.73
77218;DHT22;66214;51.302;17.068;2023-03-17T18:41:40;7.56;42.30
77218;DHT22;66214;51.302;17.068;2023-03-17T18:44:10;7.53;42.41
77218;DHT22;66214;51.302;17.068;2023-03-17T18:46:38;7.50;42.45
77218;DHT22;66214;51.302;17.068;2023-03-17T18:49:06;7.46;42.54
77218;DHT22;66214;51.302;17.068;2023-03-17T18:51:35;7.43;42.43
77218;DHT22;66214;51.302;17.068;2023-03-17T18:54:03;7.38;42.60
77218;DHT22;66214;51.302;17.068;2023-03-17T18:56:32;7.33;42.68
77218;DHT22;66214;51.302;17.068;2023-03-17T18:59:00;7.29;42.81
77218;DHT22;66214;51.302;17.068;2023-03-17T19:01:28;7.26;42.98
77218;DHT22;66214;51.302;17.068;2023-03-17T19:03:57;7.23;43.04
77218;DHT22;66214;51.302;17.068;2023-03-17T19:06:25;7.20;43.17
77218;DHT22;66214;51.302;17.068;2023-03-17T19:08:52;7.17;43.29
77218;DHT22;66214;51.302;17.068;2023-03-17T19:11:21;7.15;43.39
77218;DHT22;66214;51.302;17.068;2023-03-17T19:13:49;7.11;43.49
77218;DHT22;66214;51.302;17.068;2023-03-17T19:16:18;7.09;43.63
77218;DHT22;66214;51.302;17.068;2023-03-17T19:18:46;7.05;43.84
77218;DHT22;66214;51.302;17.068;2023-03-17T19:21:14;7.03;43.95
77218;DHT22;66214;51.302;17.068;2023-03-17T19:23:42;7.01;44.41
77218;DHT22;66214;51.302;17.068;2023-03-17T19:26:11;7.01;44.51
77218;DHT22;66214;51.302;17.068;2023-03-17T19:28:39;6.99;44.87
77218;DHT22;66214;51.302;17.068;2023-03-17T19:31:08;6.99;45.02
77218;DHT22;66214;51.302;17.068;2023-03-17T19:33:36;6.96;44.97
77218;DHT22;66214;51.302;17.068;2023-03-17T19:36:09;6.93;45.02
77218;DHT22;66214;51.302;17.068;2023-03-17T19:38:39;6.91;45.11
77218;DHT22;66214;51.302;17.068;2023-03-17T19:41:07;6.88;45.17
77218;DHT22;66214;51.302;17.068;2023-03-17T19:43:36;6.85;45.28
77218;DHT22;66214;51.302;17.068;2023-03-17T19:46:04;6.80;45.32
77218;DHT22;66214;51.302;17.068;2023-03-17T19:48:32;6.77;45.46
77218;DHT22;66214;51.302;17.068;2023-03-17T19:51:00;6.74;45.68
77218;DHT22;66214;51.302;17.068;2023-03-17T19:53:28;6.71;45.89
77218;DHT22;66214;51.302;17.068;2023-03-17T19:55:56;6.69;46.13
77218;DHT22;66214;51.302;17.068;2023-03-17T19:58:24;6.67;46.10
77218;DHT22;66214;51.302;17.068;2023-03-17T20:00:53;6.64;46.18
